createdAt,value
2022-10-13T00:00:41.610Z,96569.66
2022-10-13T00:03:08.933Z,96485.66
2022-10-13T00:05:35.993Z,96556.44
2022-10-13T00:08:02.560Z,96541.06
2022-10-13T00:10:30.455Z,96555.88
2022-10-13T00:12:56.999Z,96566.59
2022-10-13T00:15:25.890Z,96564.81
2022-10-13T00:17:52.573Z,96551.75
2022-10-13T00:20:19.339Z,96537.94
2022-10-13T00:22:46.040Z,96586.50
2022-10-13T00:25:12.597Z,96545.50
2022-10-13T00:27:39.210Z,96545.84
2022-10-13T00:30:06.361Z,96549.97
2022-10-13T00:32:33.149Z,96536.19
2022-10-13T00:34:59.807Z,96538.31
2022-10-13T00:37:26.402Z,96530.09
2022-10-13T00:39:53.120Z,96549.97
2022-10-13T00:42:26.259Z,96546.66
2022-10-13T00:45:11.955Z,96549.84
2022-10-13T00:47:44.863Z,96547.72
2022-10-13T00:50:16.167Z,96542.34
2022-10-13T00:52:45.552Z,96551.66
2022-10-13T00:55:16.746Z,96553.88
2022-10-13T00:57:46.671Z,96547.81
2022-10-13T01:00:13.694Z,96546.25
2022-10-13T01:02:40.496Z,96554.81
2022-10-13T01:05:07.918Z,96511.00
2022-10-13T01:07:35.856Z,96550.25
2022-10-13T01:10:03.459Z,96534.59
2022-10-13T01:12:56.001Z,96553.31
2022-10-13T01:15:37.817Z,96549.81
2022-10-13T01:18:33.868Z,96553.09
2022-10-13T01:21:39.316Z,96554.38
2022-10-13T01:24:30.631Z,96537.94
2022-10-13T01:27:05.140Z,96558.38
2022-10-13T01:29:59.673Z,96538.97
2022-10-13T01:32:45.473Z,96558.03
2022-10-13T01:35:18.508Z,96521.91
2022-10-13T01:37:53.693Z,96550.63
2022-10-13T01:40:32.377Z,96541.34
2022-10-13T01:43:03.488Z,96560.19
2022-10-13T01:45:47.315Z,96545.78
2022-10-13T01:48:16.767Z,96548.53
2022-10-13T01:50:47.889Z,96539.31
2022-10-13T01:53:18.009Z,96571.13
2022-10-13T01:55:54.938Z,96557.09
2022-10-13T01:58:23.199Z,96546.50
2022-10-13T02:01:28.519Z,96548.31
2022-10-13T02:04:17.856Z,96543.75
2022-10-13T02:07:11.345Z,96553.28
2022-10-13T02:09:57.313Z,96556.13
2022-10-13T02:12:39.805Z,96546.16
2022-10-13T02:15:12.045Z,96557.78
2022-10-13T02:17:40.245Z,96536.47
2022-10-13T02:20:08.325Z,96547.81
2022-10-13T02:22:41.887Z,96555.41
2022-10-13T02:25:09.125Z,96556.66
2022-10-13T02:27:35.659Z,96552.31
2022-10-13T02:30:02.266Z,96543.00
2022-10-13T02:32:30.710Z,96557.50
2022-10-13T02:34:57.499Z,96554.41
2022-10-13T02:37:25.727Z,96549.47
2022-10-13T02:39:52.808Z,96542.50
2022-10-13T02:42:19.906Z,96552.19
2022-10-13T02:44:46.590Z,96547.75
2022-10-13T02:47:13.355Z,96547.75
2022-10-13T02:49:39.911Z,96482.56
2022-10-13T02:52:07.752Z,96533.16
2022-10-13T02:54:41.798Z,96536.00
2022-10-13T02:57:08.300Z,96524.41
2022-10-13T02:59:34.917Z,96542.97
2022-10-13T03:02:01.475Z,96518.59
2022-10-13T03:04:28.198Z,96501.16
2022-10-13T03:06:59.083Z,96541.59
2022-10-13T03:09:25.763Z,96519.97
2022-10-13T03:11:52.380Z,96549.03
2022-10-13T03:14:19.122Z,96536.03
2022-10-13T03:16:45.667Z,96542.34
2022-10-13T03:19:12.997Z,96532.97
2022-10-13T03:21:39.808Z,96531.59
2022-10-13T03:24:06.646Z,96518.25
2022-10-13T03:26:34.985Z,96518.19
2022-10-13T03:29:01.665Z,96514.66
2022-10-13T03:31:28.230Z,96505.53
2022-10-13T03:34:02.076Z,96530.59
2022-10-13T03:36:28.601Z,96522.13
2022-10-13T03:38:55.145Z,96511.97
2022-10-13T03:41:22.503Z,96527.41
2022-10-13T03:43:51.908Z,96542.53
2022-10-13T03:46:19.141Z,96542.91
2022-10-13T03:48:47.717Z,96539.09
2022-10-13T03:51:17.266Z,96539.94
2022-10-13T03:53:49.504Z,96535.03
2022-10-13T03:56:19.682Z,96524.41
2022-10-13T03:58:56.606Z,96534.66
2022-10-13T04:01:25.665Z,96560.78
2022-10-13T04:03:53.970Z,96562.53
2022-10-13T04:06:20.725Z,96547.81
2022-10-13T04:08:47.334Z,96530.25
2022-10-13T04:11:15.345Z,96561.28
2022-10-13T04:13:43.390Z,96555.47
2022-10-13T04:16:21.407Z,96528.63
2022-10-13T04:18:53.294Z,96560.66
2022-10-13T04:21:20.262Z,96565.59
2022-10-13T04:23:47.099Z,96553.50
2022-10-13T04:26:20.351Z,96559.31
2022-10-13T04:28:48.625Z,96557.94
2022-10-13T04:31:15.230Z,96544.59
2022-10-13T04:33:41.794Z,96541.13
2022-10-13T04:36:11.556Z,96541.22
2022-10-13T04:38:38.690Z,96515.75
2022-10-13T04:41:06.542Z,96561.66
2022-10-13T04:43:33.800Z,96539.59
2022-10-13T04:46:13.956Z,96555.00
2022-10-13T04:48:41.434Z,96558.50
2022-10-13T04:51:13.676Z,96535.41
2022-10-13T04:53:44.218Z,96549.53
2022-10-13T04:56:15.860Z,96554.47
2022-10-13T04:58:44.243Z,96541.81
2022-10-13T05:01:21.538Z,96540.81
2022-10-13T05:03:53.327Z,96532.25
2022-10-13T05:06:23.235Z,96522.25
2022-10-13T05:08:56.066Z,96523.03
2022-10-13T05:11:24.484Z,96539.53
2022-10-13T05:13:51.227Z,96539.88
2022-10-13T05:16:19.185Z,96542.47
2022-10-13T05:18:45.828Z,96527.88
2022-10-13T05:21:27.646Z,96531.84
2022-10-13T05:23:56.046Z,96548.09
2022-10-13T05:26:28.984Z,96541.47
2022-10-13T05:29:00.157Z,96543.06
2022-10-13T05:31:31.767Z,96547.63
2022-10-13T05:33:59.826Z,96537.84
2022-10-13T05:36:34.660Z,96533.72
2022-10-13T05:39:04.557Z,96505.53
2022-10-13T05:41:31.089Z,96513.28
2022-10-13T05:44:01.519Z,96539.13
2022-10-13T05:46:28.465Z,96499.81
2022-10-13T05:48:55.151Z,96543.66
2022-10-13T05:51:26.795Z,96546.03
2022-10-13T05:54:00.904Z,96527.81
2022-10-13T05:56:32.568Z,96543.91
2022-10-13T05:59:02.209Z,96529.84
2022-10-13T06:01:32.803Z,96548.75
2022-10-13T06:04:04.686Z,96549.63
2022-10-13T06:06:31.793Z,96540.53
2022-10-13T06:08:59.918Z,96540.84
2022-10-13T06:11:32.328Z,96539.69
2022-10-13T06:13:58.883Z,96523.06
2022-10-13T06:16:25.703Z,96507.31
2022-10-13T06:18:52.785Z,96527.00
2022-10-13T06:21:19.295Z,96507.88
2022-10-13T06:23:45.963Z,96526.59
2022-10-13T06:26:12.498Z,96500.25
2022-10-13T06:28:39.150Z,96514.00
2022-10-13T06:31:06.634Z,96518.03
2022-10-13T06:33:33.698Z,96527.44
2022-10-13T06:36:04.965Z,96509.38
2022-10-13T06:38:32.739Z,96458.38
2022-10-13T06:41:04.671Z,96541.53
2022-10-13T06:43:38.922Z,96546.72
2022-10-13T06:46:09.937Z,96507.44
2022-10-13T06:48:36.674Z,96536.88
2022-10-13T06:51:08.273Z,96546.50
2022-10-13T06:53:35.928Z,96541.66
2022-10-13T06:56:05.186Z,96511.81
2022-10-13T06:58:31.914Z,96531.25
2022-10-13T07:00:58.445Z,96533.19
2022-10-13T07:03:26.019Z,96530.22
2022-10-13T07:05:53.298Z,96535.69
2022-10-13T07:08:20.726Z,96537.81
2022-10-13T07:10:47.414Z,96535.06
2022-10-13T07:13:13.995Z,96530.19
2022-10-13T07:15:40.964Z,96517.59
2022-10-13T07:18:07.949Z,96535.38
2022-10-13T07:20:34.963Z,96535.56
2022-10-13T07:23:02.029Z,96529.31
2022-10-13T07:25:28.699Z,96533.75
2022-10-13T07:27:55.521Z,96534.59
2022-10-13T07:30:22.461Z,96521.88
2022-10-13T07:32:49.121Z,96537.22
2022-10-13T07:35:15.906Z,96526.63
2022-10-13T07:37:42.412Z,96532.53
2022-10-13T07:40:09.546Z,96516.47
2022-10-13T07:42:36.023Z,96529.34
2022-10-13T07:45:02.894Z,96530.97
2022-10-13T07:47:30.361Z,96526.06
2022-10-13T07:49:56.928Z,96524.78
2022-10-13T07:52:23.492Z,96521.28
2022-10-13T07:54:50.626Z,96517.25
2022-10-13T07:57:17.443Z,96520.97
2022-10-13T07:59:44.147Z,96522.63
2022-10-13T08:02:12.983Z,96519.88
2022-10-13T08:04:39.713Z,96506.00
2022-10-13T08:07:06.664Z,96513.78
2022-10-13T08:09:33.394Z,96517.47
2022-10-13T08:12:01.707Z,96514.81
2022-10-13T08:14:29.432Z,96508.81
2022-10-13T08:16:57.130Z,96502.16
2022-10-13T08:19:26.351Z,96499.50
2022-10-13T08:21:58.311Z,96506.25
2022-10-13T08:24:26.372Z,96524.34
2022-10-13T08:26:53.278Z,96511.59
2022-10-13T08:29:22.539Z,96516.13
2022-10-13T08:31:50.579Z,96516.34
2022-10-13T08:34:17.254Z,96512.09
2022-10-13T08:36:43.875Z,96516.72
2022-10-13T08:39:10.996Z,96518.81
2022-10-13T08:41:41.006Z,96505.91
2022-10-13T08:47:27.253Z,96511.72
2022-10-13T08:49:59.998Z,96515.44
2022-10-13T08:52:29.505Z,96514.94
2022-10-13T08:54:57.165Z,96513.56
2022-10-13T08:57:24.285Z,96510.25
2022-10-13T08:59:52.422Z,96501.56
2022-10-13T09:02:26.440Z,96506.91
2022-10-13T09:04:53.762Z,96507.66
2022-10-13T09:07:40.636Z,96498.56
2022-10-13T09:10:09.531Z,96501.63
2022-10-13T09:12:36.119Z,96501.81
2022-10-13T09:15:09.848Z,96473.72
2022-10-13T09:17:39.455Z,96510.59
2022-10-13T09:20:22.684Z,96509.28
2022-10-13T09:23:19.086Z,96495.03
2022-10-13T09:25:51.218Z,96491.72
2022-10-13T09:28:25.739Z,96490.41
2022-10-13T09:31:23.149Z,96487.72
2022-10-13T09:34:30.264Z,96478.56
2022-10-13T09:37:06.007Z,96476.63
2022-10-13T09:39:34.110Z,96472.44
2022-10-13T09:42:33.194Z,96477.69
2022-10-13T09:45:13.280Z,96463.91
2022-10-13T09:47:40.315Z,96478.75
2022-10-13T09:50:18.797Z,96475.31
2022-10-13T09:52:47.544Z,96474.19
2022-10-13T09:55:35.948Z,96472.31
2022-10-13T09:58:28.320Z,96476.81
2022-10-13T10:00:57.533Z,96476.25
2022-10-13T10:03:37.328Z,96466.72
2022-10-13T10:06:07.670Z,96480.16
2022-10-13T10:09:03.176Z,96470.09
2022-10-13T10:11:35.251Z,96463.94
2022-10-13T10:14:19.428Z,96467.66
2022-10-13T10:16:57.266Z,96467.81
2022-10-13T10:20:02.155Z,96468.69
2022-10-13T10:22:43.658Z,96479.59
2022-10-13T10:25:16.849Z,96481.81
2022-10-13T10:27:59.966Z,96465.00
2022-10-13T10:30:31.185Z,96467.38
2022-10-13T10:33:13.491Z,96461.88
2022-10-13T10:35:50.352Z,96463.44
2022-10-13T10:38:43.255Z,96462.22
2022-10-13T10:41:37.735Z,96465.88
2022-10-13T10:44:14.836Z,96458.09
2022-10-13T10:46:48.642Z,96455.88
2022-10-13T10:49:36.605Z,96448.81
2022-10-13T10:52:08.429Z,96449.72
2022-10-13T10:54:55.930Z,96413.06
2022-10-13T10:58:04.246Z,96435.59
2022-10-13T11:00:41.514Z,96442.91
2022-10-13T11:03:35.022Z,96421.78
2022-10-13T11:06:20.959Z,96428.84
2022-10-13T11:08:49.271Z,96426.13
2022-10-13T11:11:26.654Z,96424.16
2022-10-13T11:13:54.502Z,96420.66
2022-10-13T11:17:10.709Z,96420.75
2022-10-13T11:19:40.619Z,96405.03
2022-10-13T11:22:07.057Z,96403.78
2022-10-13T11:24:37.338Z,96401.81
2022-10-13T11:27:11.445Z,96403.22
2022-10-13T11:29:47.223Z,96401.25
2022-10-13T11:32:26.086Z,96397.81
2022-10-13T11:35:18.506Z,96390.81
2022-10-13T11:38:15.291Z,96382.13
2022-10-13T11:41:19.641Z,96380.66
2022-10-13T11:43:57.735Z,96388.28
2022-10-13T11:46:46.275Z,96384.13
2022-10-13T11:49:24.209Z,96379.97
2022-10-13T11:52:06.621Z,96378.72
2022-10-13T11:54:40.352Z,96376.63
2022-10-13T11:57:27.305Z,96370.22
2022-10-13T11:59:56.068Z,96363.19
2022-10-13T12:02:28.477Z,96364.72
2022-10-13T12:05:23.605Z,96359.06
2022-10-13T12:07:53.099Z,96347.28
2022-10-13T12:10:28.184Z,96352.72
2022-10-13T12:12:54.729Z,96344.16
2022-10-13T12:15:33.992Z,96341.41
2022-10-13T12:18:01.257Z,96325.53
2022-10-13T12:20:32.629Z,96339.25
2022-10-13T12:25:29.589Z,96342.81
2022-10-13T12:28:00.760Z,96334.19
2022-10-13T12:30:36.949Z,96333.56
2022-10-13T12:33:17.585Z,96324.78
2022-10-13T12:35:44.124Z,96323.53
2022-10-13T12:38:19.759Z,96322.03
2022-10-13T12:40:49.809Z,96329.34
2022-10-13T12:43:20.233Z,96330.16
2022-10-13T12:45:48.792Z,96326.66
2022-10-13T12:48:35.242Z,96323.06
2022-10-13T12:51:18.872Z,96328.88
2022-10-13T12:53:46.521Z,96327.28
2022-10-13T12:56:27.619Z,96320.25
2022-10-13T12:58:55.138Z,96322.44
2022-10-13T13:01:31.322Z,96318.16
2022-10-13T13:04:15.044Z,96305.97
2022-10-13T13:06:52.864Z,96305.38
2022-10-13T13:09:24.294Z,96298.97
2022-10-13T13:12:12.511Z,96299.63
2022-10-13T13:14:43.972Z,96301.97
2022-10-13T13:17:17.553Z,96302.72
2022-10-13T13:19:55.514Z,96275.06
2022-10-13T13:22:22.444Z,96297.09
2022-10-13T13:24:52.432Z,96297.88
2022-10-13T13:27:24.320Z,96280.91
2022-10-13T13:29:51.389Z,96287.47
2022-10-13T13:32:20.473Z,96291.34
2022-10-13T13:34:47.207Z,96292.06
2022-10-13T13:37:31.531Z,96296.53
2022-10-13T13:39:58.729Z,96292.31
2022-10-13T13:42:27.208Z,96289.47
2022-10-13T13:44:53.852Z,96280.78
2022-10-13T13:47:22.936Z,96275.09
2022-10-13T13:49:51.965Z,96275.97
2022-10-13T13:52:19.293Z,96283.78
2022-10-13T13:54:46.276Z,96279.63
2022-10-13T13:57:15.978Z,96270.75
2022-10-13T13:59:43.319Z,96273.19
2022-10-13T14:02:20.159Z,96274.66
2022-10-13T14:04:47.390Z,96271.06
2022-10-13T14:07:14.235Z,96266.63
2022-10-13T14:09:41.571Z,96263.97
2022-10-13T14:12:09.858Z,96269.09
2022-10-13T14:14:36.419Z,96258.16
2022-10-13T14:17:04.277Z,96259.78
2022-10-13T14:19:32.224Z,96269.16
2022-10-13T14:21:59.579Z,96250.28
2022-10-13T14:24:26.106Z,96259.63
2022-10-13T14:26:52.664Z,96260.94
2022-10-13T14:29:19.252Z,96269.56
2022-10-13T14:31:45.902Z,96259.16
2022-10-13T14:34:12.410Z,96270.94
2022-10-13T14:36:40.048Z,96253.72
2022-10-13T14:39:06.617Z,96253.72
2022-10-13T14:41:33.320Z,96252.25
2022-10-13T14:43:59.872Z,96250.91
2022-10-13T14:46:26.470Z,96255.31
2022-10-13T14:48:54.847Z,96260.50
2022-10-13T14:51:21.391Z,96254.75
2022-10-13T14:53:47.968Z,96253.22
2022-10-13T14:56:18.793Z,96258.44
2022-10-13T14:58:50.798Z,96262.78
2022-10-13T15:01:18.257Z,96241.03
2022-10-13T15:03:45.169Z,96253.41
2022-10-13T15:06:20.766Z,96252.78
2022-10-13T15:08:48.655Z,96244.16
2022-10-13T15:11:16.140Z,96250.69
2022-10-13T15:13:42.786Z,96231.13
2022-10-13T15:16:16.894Z,96242.13
2022-10-13T15:18:43.620Z,96243.59
2022-10-13T15:21:10.234Z,96239.81
2022-10-13T15:23:36.873Z,96244.28
2022-10-13T15:26:04.475Z,96232.81
2022-10-13T15:28:36.158Z,96240.75
2022-10-13T15:31:03.005Z,96229.06
2022-10-13T15:33:29.772Z,96231.28
2022-10-13T15:35:56.923Z,96238.63
2022-10-13T15:38:23.973Z,96237.22
2022-10-13T15:40:51.031Z,96228.41
2022-10-13T15:43:18.066Z,96243.69
2022-10-13T15:45:55.540Z,96246.56
2022-10-13T15:48:22.433Z,96239.97
2022-10-13T15:50:49.242Z,96237.94
2022-10-13T15:53:15.925Z,96239.34
2022-10-13T15:55:42.819Z,96239.34
2022-10-13T15:58:13.679Z,96244.44
2022-10-13T16:00:41.874Z,96234.22
2022-10-13T16:03:15.341Z,96232.22
2022-10-13T16:05:43.658Z,96232.91
2022-10-13T16:08:10.580Z,96219.75
2022-10-13T16:10:43.589Z,96223.41
2022-10-13T16:13:14.469Z,96229.25
2022-10-13T16:15:42.337Z,96228.34
2022-10-13T16:18:09.304Z,96223.25
2022-10-13T16:20:37.891Z,96227.59
2022-10-13T16:23:05.093Z,96220.09
2022-10-13T16:25:32.067Z,96225.97
2022-10-13T16:28:01.867Z,96233.06
2022-10-13T16:30:30.294Z,96230.06
2022-10-13T16:32:57.777Z,96232.16
2022-10-13T16:35:24.411Z,96246.44
2022-10-13T16:37:50.976Z,96254.34
2022-10-13T16:40:17.539Z,96241.13
2022-10-13T16:42:44.958Z,96246.25
2022-10-13T16:45:11.746Z,96252.00
2022-10-13T16:47:38.390Z,96259.16
2022-10-13T16:50:09.405Z,96254.16
2022-10-13T16:52:37.349Z,96249.81
2022-10-13T16:55:05.586Z,96241.91
2022-10-13T16:57:32.713Z,96244.66
2022-10-13T16:59:59.465Z,96240.38
2022-10-13T17:02:28.580Z,96246.75
2022-10-13T17:04:55.235Z,96250.34
2022-10-13T17:07:22.099Z,96251.03
2022-10-13T17:09:50.023Z,96237.81
2022-10-13T17:12:16.640Z,96248.72
2022-10-13T17:14:43.413Z,96255.09
2022-10-13T17:17:10.211Z,96242.06
2022-10-13T17:19:37.030Z,96259.09
2022-10-13T17:22:03.723Z,96260.09
2022-10-13T17:24:30.966Z,96239.06
2022-10-13T17:26:57.597Z,96275.22
2022-10-13T17:29:24.175Z,96258.75
2022-10-13T17:31:53.337Z,96246.91
2022-10-13T17:34:21.822Z,96246.78
2022-10-13T17:36:51.197Z,96261.50
2022-10-13T17:39:18.024Z,96262.16
2022-10-13T17:41:44.762Z,96268.38
2022-10-13T17:44:11.761Z,96269.84
2022-10-13T17:46:39.780Z,96244.63
2022-10-13T17:49:09.998Z,96249.78
2022-10-13T17:51:36.762Z,96248.97
2022-10-13T17:54:03.977Z,96249.53
2022-10-13T17:56:30.719Z,96259.44
2022-10-13T17:58:57.609Z,96251.00
2022-10-13T18:01:33.975Z,96215.84
2022-10-13T18:04:05.667Z,96243.84
2022-10-13T18:06:38.578Z,96258.94
2022-10-13T18:09:17.381Z,96253.88
2022-10-13T18:11:49.830Z,96254.91
2022-10-13T18:14:19.118Z,96192.94
2022-10-13T18:16:49.276Z,96251.53
2022-10-13T18:19:16.395Z,96213.38
2022-10-13T18:21:43.263Z,96259.38
2022-10-13T18:24:11.739Z,96215.00
2022-10-13T18:26:38.594Z,96266.81
2022-10-13T18:29:07.451Z,96269.19
2022-10-13T18:31:37.070Z,96237.31
2022-10-13T18:34:06.764Z,96240.81
2022-10-13T18:36:42.611Z,96221.22
2022-10-13T18:39:20.699Z,96237.88
2022-10-13T18:41:50.634Z,96228.91
2022-10-13T18:44:20.204Z,96197.78
2022-10-13T18:46:52.670Z,96175.84
2022-10-13T18:49:23.116Z,96201.97
2022-10-13T18:51:51.526Z,96206.78
2022-10-13T18:54:18.150Z,96228.44
2022-10-13T18:57:01.898Z,96229.13
2022-10-13T18:59:31.411Z,96229.00
2022-10-13T19:02:06.006Z,96210.00
2022-10-13T19:04:32.822Z,96236.16
2022-10-13T19:07:05.849Z,96207.66
2022-10-13T19:09:32.840Z,96216.25
2022-10-13T19:11:59.537Z,96220.69
2022-10-13T19:14:27.474Z,96220.56
2022-10-13T19:17:00.854Z,96210.91
2022-10-13T19:19:29.544Z,96226.81
2022-10-13T19:21:57.712Z,96185.56
2022-10-13T19:24:25.618Z,96183.88
2022-10-13T19:26:52.664Z,96196.66
2022-10-13T19:29:19.432Z,96184.34
2022-10-13T19:31:46.230Z,96175.88
2022-10-13T19:34:13.730Z,96209.34
2022-10-13T19:36:43.657Z,96180.00
2022-10-13T19:39:22.206Z,96183.50
2022-10-13T19:41:51.629Z,96184.34
2022-10-13T19:44:24.257Z,96204.22
2022-10-13T19:46:58.700Z,96240.75
2022-10-13T19:49:36.027Z,96209.38
2022-10-13T19:52:14.651Z,96144.78
2022-10-13T19:54:49.680Z,96261.06
2022-10-13T19:57:30.638Z,96174.06
2022-10-13T20:00:03.420Z,96228.53
2022-10-13T20:02:45.210Z,96145.97
2022-10-13T20:05:14.490Z,96185.81
2022-10-13T20:07:45.687Z,96175.97
2022-10-13T20:10:22.575Z,96204.50
2022-10-13T20:12:52.345Z,96208.50
2022-10-13T20:15:20.536Z,96160.09
2022-10-13T20:17:53.448Z,96211.44
2022-10-13T20:20:22.505Z,96174.59
2022-10-13T20:22:52.618Z,96195.63
2022-10-13T20:25:20.104Z,96217.03
2022-10-13T20:28:00.717Z,96127.22
2022-10-13T20:30:30.634Z,96216.97
2022-10-13T20:32:57.589Z,96210.41
2022-10-13T20:35:27.669Z,96218.94
2022-10-13T20:37:57.665Z,96215.84
2022-10-13T20:40:27.851Z,96218.28
2022-10-13T20:43:05.874Z,96216.91
2022-10-13T20:46:38.658Z,96223.97
2022-10-13T20:49:09.880Z,96205.69
2022-10-13T20:51:46.581Z,96222.50
2022-10-13T21:00:28.791Z,96220.72
2022-10-13T21:03:08.977Z,96166.47
2022-10-13T21:06:01.837Z,96184.72
2022-10-13T21:09:30.084Z,96203.13
2022-10-13T21:11:51.214Z,96217.56
2022-10-13T21:14:21.627Z,96196.56
2022-10-13T21:16:48.396Z,96200.69
2022-10-13T21:19:36.663Z,96200.69
2022-10-13T21:22:17.903Z,96196.66
2022-10-13T21:27:38.292Z,96198.94
2022-10-13T21:30:15.780Z,96168.84
2022-10-13T21:32:42.382Z,96190.13
2022-10-13T21:35:09.689Z,96186.41
2022-10-13T21:37:37.739Z,96211.44
2022-10-13T21:40:09.360Z,96204.38
2022-10-13T21:42:36.076Z,96206.53
2022-10-13T21:45:03.297Z,96207.84
2022-10-13T21:47:34.806Z,96209.31
2022-10-13T21:50:08.541Z,96195.53
2022-10-13T21:52:39.025Z,96218.66
2022-10-13T21:55:10.019Z,96227.84
2022-10-13T21:57:37.134Z,96234.38
2022-10-13T22:00:05.776Z,96238.81
2022-10-13T22:02:39.379Z,96229.97
2022-10-13T22:05:10.563Z,96245.16
2022-10-13T22:07:37.361Z,96236.16
2022-10-13T22:10:04.514Z,96269.41
2022-10-13T22:12:31.378Z,96262.22
2022-10-13T22:14:58.091Z,96217.53
2022-10-13T22:17:24.934Z,96255.88
2022-10-13T22:19:51.652Z,96255.66
2022-10-13T22:22:21.404Z,96250.50
2022-10-13T22:24:50.632Z,96252.13
2022-10-13T22:27:17.327Z,96260.09
2022-10-13T22:29:43.866Z,96272.09
2022-10-13T22:32:10.786Z,96260.31
2022-10-13T22:34:37.457Z,96283.91
2022-10-13T22:37:04.209Z,96252.09
2022-10-13T22:39:31.200Z,96268.25
2022-10-13T22:42:08.171Z,96264.00
2022-10-13T22:44:35.410Z,96270.25
2022-10-13T22:47:03.521Z,96251.06
2022-10-13T22:49:37.327Z,96266.19
2022-10-13T22:52:04.333Z,96276.28
2022-10-13T22:54:32.495Z,96273.25
2022-10-13T22:56:59.062Z,96266.72
2022-10-13T22:59:27.368Z,96273.16
2022-10-13T23:01:53.958Z,96257.84
2022-10-13T23:04:20.542Z,96267.81
2022-10-13T23:06:47.340Z,96241.78
2022-10-13T23:09:14.357Z,96264.88
2022-10-13T23:11:44.023Z,96250.38
2022-10-13T23:14:17.862Z,96232.97
2022-10-13T23:16:45.344Z,96229.22
2022-10-13T23:19:11.891Z,96246.13
2022-10-13T23:21:38.481Z,96241.00
2022-10-13T23:24:06.742Z,96236.81
2022-10-13T23:26:34.707Z,96227.53
2022-10-13T23:29:01.729Z,96225.28
2022-10-13T23:31:28.881Z,96242.72
2022-10-13T23:33:55.930Z,96218.00
2022-10-13T23:36:25.303Z,96236.91
2022-10-13T23:39:06.738Z,96236.31
2022-10-13T23:41:34.171Z,96225.75
2022-10-13T23:44:00.964Z,96231.41
2022-10-13T23:46:27.811Z,96228.53
2022-10-13T23:48:54.583Z,96229.25
2022-10-13T23:51:24.120Z,96217.91
2022-10-13T23:53:51.396Z,96213.88
2022-10-13T23:56:18.774Z,96206.69
2022-10-13T23:58:45.606Z,96225.78
